Terminal Aerodrome Forecast
Issued by NWS Quad Cities IA IL

Home | Current Version | Previous Version | Text Only | Print | Product List | Glossary On
Versions: 1 2 3 4 5 6 7 8 9 10 11 12 13 14 15 16
517
FTUS43 KDVN 220527
TAFDBQ
TAF
KDBQ 220527Z 2206/2306 07009KT P6SM OVC100
     FM221900 09012KT P6SM BKN250
     FM230300 08006KT P6SM BKN120=

USA.gov is the U.S. government's official web portal to all federal, state and local government web resources and services.